Time;durP1;ratioP1;P1;durP2;ratioP2;P2;SDS_P1;SDS_P2;PMS_P1;PMS_P2;Temp;Humidity;BMP_temperature;BMP_pressure;BME280_temperature;BME280_humidity;BME280_pressure;Samples;Min_cycle;Max_cycle;Signal;HPM_P1;HPM_P2
2022/10/18 00:01:07;;;;;;;11.70;10.50;;;;;;;;;;105559;1297;25483;-26
2022/10/18 00:03:45;;;;;;;11.50;10.30;;;;;;;;;;105528;1295;26407;-26
2022/10/18 00:06:17;;;;;;;11.60;10.20;;;;;;;;;;105547;1290;22475;-26
2022/10/18 00:08:49;;;;;;;11.90;10.60;;;;;;;;;;105584;1297;22467;-27
2022/10/18 00:11:23;;;;;;;11.40;10.30;;;;;;;;;;105583;1298;22502;-25
2022/10/18 00:13:56;;;;;;;11.10;9.90;;;;;;;;;;105576;1304;22474;-25
2022/10/18 00:16:29;;;;;;;10.90;9.80;;;;;;;;;;105555;1296;25492;-24
2022/10/18 00:19:01;;;;;;;11.40;9.70;;;;;;;;;;105494;1289;24245;-29
2022/10/18 00:21:33;;;;;;;11.20;10.10;;;;;;;;;;105512;1292;22494;-26
2022/10/18 00:24:06;;;;;;;10.50;9.40;;;;;;;;;;105520;1298;22491;-28
2022/10/18 00:26:38;;;;;;;10.70;9.40;;;;;;;;;;105573;1303;22747;-26
2022/10/18 00:29:14;;;;;;;11.50;10.20;;;;;;;;;;105557;1294;22501;-26
2022/10/18 00:31:47;;;;;;;10.90;9.80;;;;;;;;;;105646;1303;22746;-27
2022/10/18 00:34:19;;;;;;;10.00;9.00;;;;;;;;;;105585;1291;22622;-26
2022/10/18 00:36:51;;;;;;;11.00;9.80;;;;;;;;;;105616;1286;22546;-28
2022/10/18 00:39:24;;;;;;;10.90;9.60;;;;;;;;;;105513;1289;22499;-26
2022/10/18 00:41:56;;;;;;;10.80;9.60;;;;;;;;;;105558;1283;22630;-27
2022/10/18 00:45:13;;;;;;;10.60;9.30;;;;;;;;;;105547;1291;25249;-27
2022/10/18 00:47:50;;;;;;;10.50;9.30;;;;;;;;;;105543;1281;22590;-27
2022/10/18 00:50:24;;;;;;;10.50;9.50;;;;;;;;;;105649;1292;22482;-27
2022/10/18 00:52:59;;;;;;;11.10;9.80;;;;;;;;;;105630;1298;22481;-27
2022/10/18 00:55:36;;;;;;;10.10;9.10;;;;;;;;;;105624;1298;22625;-27
2022/10/18 00:58:09;;;;;;;9.80;8.80;;;;;;;;;;105569;1303;22465;-27
2022/10/18 01:00:42;;;;;;;10.10;8.90;;;;;;;;;;105566;1301;22467;-27
2022/10/18 01:03:16;;;;;;;10.30;8.90;;;;;;;;;;105543;1303;22488;-24
2022/10/18 01:05:49;;;;;;;10.50;9.40;;;;;;;;;;105592;1297;22471;-25
2022/10/18 01:08:56;;;;;;;9.70;8.70;;;;;;;;;;105503;1292;22475;-24
2022/10/18 01:11:51;;;;;;;9.40;8.40;;;;;;;;;;105599;1304;22463;-25
2022/10/18 01:14:44;;;;;;;10.20;8.80;;;;;;;;;;105603;1283;22490;-25
2022/10/18 01:17:24;;;;;;;11.40;9.10;;;;;;;;;;105597;1289;22453;-24
2022/10/18 01:20:55;;;;;;;10.00;8.90;;;;;;;;;;105537;1292;22488;-27
2022/10/18 01:23:54;;;;;;;10.20;8.50;;;;;;;;;;105293;1304;22480;-27
2022/10/18 01:26:50;;;;;;;10.10;8.70;;;;;;;;;;105531;1301;22482;-28
2022/10/18 01:29:46;;;;;;;9.40;8.50;;;;;;;;;;105510;1296;22487;-27
2022/10/18 01:32:22;;;;;;;9.30;8.30;;;;;;;;;;105550;1288;22551;-28
2022/10/18 01:35:01;;;;;;;9.90;8.40;;;;;;;;;;105622;1297;22485;-27
2022/10/18 01:37:35;;;;;;;10.00;9.00;;;;;;;;;;105539;1300;22481;-27
2022/10/18 01:40:13;;;;;;;9.80;8.50;;;;;;;;;;105523;1297;22471;-27
2022/10/18 01:42:47;;;;;;;9.60;8.30;;;;;;;;;;105581;1295;22489;-27
2022/10/18 01:45:20;;;;;;;9.90;8.90;;;;;;;;;;105564;1292;22690;-27
2022/10/18 01:47:53;;;;;;;9.90;8.40;;;;;;;;;;105556;1281;22474;-27
2022/10/18 01:50:34;;;;;;;;;;;;;;;;;;105532;1303;22481;-28
2022/10/18 01:53:06;;;;;;;9.30;8.20;;;;;;;;;;105555;1298;22546;-27
2022/10/18 01:55:45;;;;;;;8.80;7.90;;;;;;;;;;105567;1302;22505;-27
2022/10/18 01:58:27;;;;;;;9.50;8.40;;;;;;;;;;105533;1294;22471;-27
2022/10/18 02:01:06;;;;;;;8.90;7.70;;;;;;;;;;105555;1292;22793;-27
2022/10/18 02:03:45;;;;;;;9.80;8.00;;;;;;;;;;105565;1288;22475;-27
2022/10/18 02:06:25;;;;;;;10.50;8.40;;;;;;;;;;105539;1298;22481;-27
2022/10/18 02:09:07;;;;;;;9.40;8.00;;;;;;;;;;105518;1284;22536;-27
2022/10/18 02:11:41;;;;;;;9.50;8.50;;;;;;;;;;105519;1287;22478;-28
2022/10/18 02:14:16;;;;;;;9.40;7.70;;;;;;;;;;105549;1297;22482;-28
2022/10/18 02:16:52;;;;;;;8.70;7.70;;;;;;;;;;105553;1288;22803;-27
2022/10/18 02:19:33;;;;;;;9.10;7.70;;;;;;;;;;105570;1297;22473;-27
2022/10/18 02:22:07;;;;;;;9.00;7.40;;;;;;;;;;105532;1297;22485;-27
2022/10/18 02:24:44;;;;;;;8.80;7.40;;;;;;;;;;105427;1296;22506;-27
2022/10/18 02:27:17;;;;;;;8.70;7.50;;;;;;;;;;105389;1298;24371;-27
2022/10/18 02:29:50;;;;;;;8.10;7.20;;;;;;;;;;105237;1300;22457;-27
2022/10/18 02:32:31;;;;;;;9.10;7.90;;;;;;;;;;105546;1296;22500;-27
2022/10/18 02:35:16;;;;;;;8.00;7.10;;;;;;;;;;105607;1290;22500;-27
2022/10/18 02:37:51;;;;;;;9.30;7.60;;;;;;;;;;105589;1304;22486;-27
2022/10/18 02:40:23;;;;;;;9.00;7.10;;;;;;;;;;105562;1297;22489;-27
2022/10/18 02:42:58;;;;;;;8.40;7.50;;;;;;;;;;105564;1289;25484;-27
2022/10/18 02:45:31;;;;;;;8.50;7.40;;;;;;;;;;105577;1304;22478;-27
2022/10/18 02:48:03;;;;;;;8.20;7.00;;;;;;;;;;105579;1292;25461;-27
2022/10/18 02:50:36;;;;;;;8.80;7.60;;;;;;;;;;105574;1298;22494;-28
2022/10/18 02:53:08;;;;;;;7.80;7.00;;;;;;;;;;105598;1298;22555;-27
2022/10/18 02:55:41;;;;;;;8.50;7.30;;;;;;;;;;105628;1304;22466;-28
2022/10/18 02:58:13;;;;;;;7.80;7.00;;;;;;;;;;105621;1298;22535;-27
2022/10/18 03:00:45;;;;;;;8.30;7.00;;;;;;;;;;105561;1301;22523;-27
2022/10/18 03:03:17;;;;;;;8.20;7.10;;;;;;;;;;105603;1304;22508;-26
2022/10/18 03:05:52;;;;;;;8.40;6.80;;;;;;;;;;105614;1303;22601;-27
2022/10/18 03:08:24;;;;;;;9.30;7.70;;;;;;;;;;105616;1301;22472;-27
2022/10/18 03:10:56;;;;;;;8.40;6.70;;;;;;;;;;105586;1304;22491;-27
2022/10/18 03:13:29;;;;;;;7.50;6.70;;;;;;;;;;105623;1295;25245;-26
2022/10/18 03:16:01;;;;;;;8.50;6.90;;;;;;;;;;105597;1304;21961;-27
2022/10/18 03:18:33;;;;;;;8.00;6.70;;;;;;;;;;105582;1295;22479;-27
2022/10/18 03:21:09;;;;;;;8.10;7.10;;;;;;;;;;105637;1303;22621;-27
2022/10/18 03:23:41;;;;;;;8.10;6.60;;;;;;;;;;105668;1304;22466;-27
2022/10/18 03:26:14;;;;;;;8.10;6.80;;;;;;;;;;105800;1291;22490;-27
2022/10/18 03:28:46;;;;;;;7.80;6.90;;;;;;;;;;105818;1290;22481;-26
2022/10/18 03:31:18;;;;;;;7.80;6.50;;;;;;;;;;105791;1301;22567;-27
2022/10/18 03:33:50;;;;;;;8.20;6.60;;;;;;;;;;105625;1295;22501;-27
2022/10/18 03:36:24;;;;;;;7.80;6.60;;;;;;;;;;105657;1300;22461;-27
2022/10/18 03:38:57;;;;;;;7.10;6.10;;;;;;;;;;105673;1300;22476;-27
2022/10/18 03:41:31;;;;;;;7.90;6.70;;;;;;;;;;105592;1293;22676;-27
2022/10/18 03:44:04;;;;;;;8.50;6.80;;;;;;;;;;105819;1285;22556;-27
2022/10/18 03:46:39;;;;;;;7.30;6.20;;;;;;;;;;105826;1298;22472;-27
2022/10/18 03:49:11;;;;;;;7.80;6.70;;;;;;;;;;105811;1301;22488;-26
2022/10/18 03:51:43;;;;;;;8.00;6.50;;;;;;;;;;105798;1289;21728;-27
2022/10/18 03:54:15;;;;;;;7.40;6.50;;;;;;;;;;105642;1301;22599;-28
2022/10/18 03:56:47;;;;;;;7.70;6.40;;;;;;;;;;105667;1286;22575;-27
2022/10/18 03:59:22;;;;;;;7.50;6.20;;;;;;;;;;105639;1300;22497;-28
2022/10/18 04:01:54;;;;;;;8.00;6.50;;;;;;;;;;105630;1301;22469;-28
2022/10/18 04:04:28;;;;;;;7.90;6.40;;;;;;;;;;105832;1300;22560;-27
2022/10/18 04:07:00;;;;;;;7.80;6.80;;;;;;;;;;105626;1302;22471;-27
2022/10/18 04:09:32;;;;;;;6.80;5.60;;;;;;;;;;105810;1301;22599;-27
2022/10/18 04:12:04;;;;;;;7.20;5.90;;;;;;;;;;105812;1291;26413;-27
2022/10/18 04:14:37;;;;;;;7.50;6.30;;;;;;;;;;105554;1293;22478;-27
2022/10/18 04:17:09;;;;;;;7.90;6.10;;;;;;;;;;105594;1294;22471;-27
2022/10/18 04:19:41;;;;;;;6.90;5.90;;;;;;;;;;105617;1290;22620;-27
2022/10/18 04:22:13;;;;;;;7.10;6.00;;;;;;;;;;105644;1288;24222;-27
2022/10/18 04:24:45;;;;;;;7.30;6.20;;;;;;;;;;105767;1295;22507;-27
2022/10/18 04:27:17;;;;;;;7.10;6.00;;;;;;;;;;105826;1294;22474;-27
2022/10/18 04:29:49;;;;;;;7.50;5.80;;;;;;;;;;105813;1293;22476;-27
2022/10/18 04:32:21;;;;;;;8.00;6.40;;;;;;;;;;105813;1297;22496;-27
2022/10/18 04:34:54;;;;;;;6.50;5.60;;;;;;;;;;105613;1294;22587;-27
2022/10/18 04:37:26;;;;;;;7.20;6.10;;;;;;;;;;105641;1297;22467;-27
2022/10/18 04:39:57;;;;;;;8.30;6.80;;;;;;;;;;105632;1297;22483;-27
2022/10/18 04:42:29;;;;;;;7.70;6.50;;;;;;;;;;105654;1285;25465;-28
2022/10/18 04:45:01;;;;;;;7.50;6.00;;;;;;;;;;105736;1289;22477;-27
2022/10/18 04:47:33;;;;;;;7.20;6.00;;;;;;;;;;105827;1292;22547;-27
2022/10/18 04:50:07;;;;;;;6.70;5.90;;;;;;;;;;105833;1291;22904;-26
2022/10/18 04:52:42;;;;;;;7.70;6.20;;;;;;;;;;105852;1295;22514;-26
2022/10/18 04:55:14;;;;;;;7.80;6.50;;;;;;;;;;105618;1292;22472;-26
2022/10/18 04:57:46;;;;;;;8.40;6.70;;;;;;;;;;105650;1285;22484;-27
2022/10/18 05:00:20;;;;;;;7.00;6.00;;;;;;;;;;105613;1300;22461;-27
2022/10/18 05:02:57;;;;;;;7.00;6.20;;;;;;;;;;105614;1289;22464;-27
2022/10/18 05:05:29;;;;;;;7.90;6.40;;;;;;;;;;105754;1286;22479;-26
2022/10/18 05:08:01;;;;;;;7.50;6.40;;;;;;;;;;105715;1295;25488;-26
2022/10/18 05:10:33;;;;;;;8.30;6.40;;;;;;;;;;105782;1298;22460;-26
2022/10/18 05:13:05;;;;;;;7.90;6.70;;;;;;;;;;105783;1281;22504;-27
2022/10/18 05:15:37;;;;;;;7.50;6.00;;;;;;;;;;105593;1301;22468;-26
2022/10/18 05:18:09;;;;;;;8.50;6.20;;;;;;;;;;105648;1288;22471;-27
2022/10/18 05:20:41;;;;;;;6.70;6.00;;;;;;;;;;105659;1295;22525;-26
2022/10/18 05:23:13;;;;;;;7.00;5.80;;;;;;;;;;105647;1297;22933;-26
2022/10/18 05:25:46;;;;;;;8.20;6.30;;;;;;;;;;105766;1300;22479;-26
2022/10/18 05:28:18;;;;;;;7.60;5.70;;;;;;;;;;105808;1301;22442;-27
2022/10/18 05:30:50;;;;;;;6.80;5.80;;;;;;;;;;105794;1272;22675;-26
2022/10/18 05:33:22;;;;;;;7.40;5.70;;;;;;;;;;105801;1295;22497;-27
2022/10/18 05:35:54;;;;;;;6.90;5.50;;;;;;;;;;105627;1298;22481;-27
2022/10/18 05:38:29;;;;;;;7.20;6.00;;;;;;;;;;105647;1295;25395;-27
2022/10/18 05:41:05;;;;;;;7.40;6.00;;;;;;;;;;105664;1296;22552;-26
2022/10/18 05:43:38;;;;;;;7.60;6.00;;;;;;;;;;105656;1300;22484;-26
2022/10/18 05:46:11;;;;;;;6.70;5.70;;;;;;;;;;105754;1301;22493;-27
2022/10/18 05:48:48;;;;;;;7.20;5.70;;;;;;;;;;105817;1300;25517;-26
2022/10/18 05:51:21;;;;;;;8.70;5.70;;;;;;;;;;105836;1293;22475;-26
2022/10/18 05:53:53;;;;;;;6.60;5.50;;;;;;;;;;105776;1301;22472;-26
2022/10/18 05:56:25;;;;;;;7.20;5.70;;;;;;;;;;105587;1300;22487;-26
2022/10/18 05:58:57;;;;;;;7.60;5.30;;;;;;;;;;105638;1297;22506;-26
2022/10/18 06:01:30;;;;;;;7.30;5.80;;;;;;;;;;105628;1295;22562;-27
2022/10/18 06:04:02;;;;;;;6.90;5.50;;;;;;;;;;105637;1289;22469;-27
2022/10/18 06:06:34;;;;;;;6.50;5.60;;;;;;;;;;105741;1291;22499;-27
2022/10/18 06:09:09;;;;;;;6.40;5.40;;;;;;;;;;105827;1295;22480;-26
2022/10/18 06:11:43;;;;;;;6.80;5.20;;;;;;;;;;105803;1300;22474;-27
2022/10/18 06:14:20;;;;;;;7.00;5.60;;;;;;;;;;105808;1302;22509;-26
2022/10/18 06:16:53;;;;;;;7.00;5.60;;;;;;;;;;105614;1288;22469;-26
2022/10/18 06:19:25;;;;;;;8.70;6.60;;;;;;;;;;105622;1298;22514;-27
2022/10/18 06:22:00;;;;;;;7.70;6.20;;;;;;;;;;105676;1298;22440;-27
2022/10/18 06:24:32;;;;;;;9.50;6.20;;;;;;;;;;105617;1281;22645;-26
2022/10/18 06:27:07;;;;;;;8.70;6.00;;;;;;;;;;105756;1282;22510;-26
2022/10/18 06:29:40;;;;;;;8.40;6.10;;;;;;;;;;105794;1292;22533;-27
2022/10/18 06:32:12;;;;;;;9.40;6.80;;;;;;;;;;105818;1294;22478;-27
2022/10/18 06:34:44;;;;;;;8.90;6.60;;;;;;;;;;105791;1291;22558;-26
2022/10/18 06:37:16;;;;;;;8.70;6.20;;;;;;;;;;105600;1298;22474;-27
2022/10/18 06:39:48;;;;;;;8.30;5.90;;;;;;;;;;105417;1297;317686;-26
2022/10/18 06:42:20;;;;;;;10.00;6.70;;;;;;;;;;105625;1289;25349;-27
2022/10/18 06:44:55;;;;;;;10.80;7.00;;;;;;;;;;105605;1298;22600;-26
2022/10/18 06:47:27;;;;;;;10.20;6.90;;;;;;;;;;105753;1281;22469;-26
2022/10/18 06:49:59;;;;;;;8.70;6.40;;;;;;;;;;105699;1301;22515;-26
2022/10/18 06:52:31;;;;;;;10.60;7.00;;;;;;;;;;105787;1296;22523;-26
2022/10/18 06:55:04;;;;;;;9.20;6.90;;;;;;;;;;105793;1302;22539;-26
2022/10/18 06:57:36;;;;;;;10.60;6.90;;;;;;;;;;105670;1301;22470;-26
2022/10/18 07:00:14;;;;;;;10.70;7.10;;;;;;;;;;105619;1297;22468;-26
2022/10/18 07:02:46;;;;;;;10.10;6.50;;;;;;;;;;105607;1296;22477;-26
2022/10/18 07:05:18;;;;;;;9.60;7.30;;;;;;;;;;105633;1298;22479;-27
2022/10/18 07:07:50;;;;;;;9.60;6.80;;;;;;;;;;105759;1282;22481;-26
2022/10/18 07:10:22;;;;;;;10.30;6.90;;;;;;;;;;105795;1302;22499;-26
2022/10/18 07:12:54;;;;;;;10.80;6.80;;;;;;;;;;105837;1290;22472;-27
2022/10/18 07:15:28;;;;;;;10.10;7.00;;;;;;;;;;105821;1296;22548;-26
2022/10/18 07:18:00;;;;;;;9.00;6.20;;;;;;;;;;105589;1273;25470;-26
2022/10/18 07:20:32;;;;;;;10.10;6.60;;;;;;;;;;105619;1289;21660;-26
2022/10/18 07:23:07;;;;;;;11.20;6.60;;;;;;;;;;105619;1301;22472;-26
2022/10/18 07:25:39;;;;;;;9.20;6.40;;;;;;;;;;105556;1280;25269;-29
2022/10/18 07:28:11;;;;;;;9.80;7.10;;;;;;;;;;105639;1291;26417;-28
2022/10/18 07:30:43;;;;;;;10.20;6.70;;;;;;;;;;105729;1289;24249;-27
2022/10/18 07:33:16;;;;;;;9.10;6.10;;;;;;;;;;105789;1298;22478;-26
2022/10/18 07:35:48;;;;;;;9.70;6.20;;;;;;;;;;105635;1294;25618;-27
2022/10/18 07:38:21;;;;;;;10.30;6.30;;;;;;;;;;105582;1295;22478;-26
2022/10/18 07:40:59;;;;;;;8.50;6.60;;;;;;;;;;105574;1280;25526;-29
2022/10/18 07:43:31;;;;;;;8.40;6.30;;;;;;;;;;105595;1280;22498;-28
2022/10/18 07:46:06;;;;;;;9.10;6.30;;;;;;;;;;105561;1301;23144;-27
2022/10/18 07:48:41;;;;;;;8.10;5.90;;;;;;;;;;105691;1292;22741;-29
2022/10/18 07:51:14;;;;;;;8.70;6.30;;;;;;;;;;105739;1302;22470;-30
2022/10/18 07:53:47;;;;;;;8.80;6.20;;;;;;;;;;105747;1303;22820;-29
2022/10/18 07:56:22;;;;;;;7.50;5.90;;;;;;;;;;105720;1289;22762;-29
2022/10/18 07:58:57;;;;;;;8.50;6.10;;;;;;;;;;105522;1279;22544;-30
2022/10/18 08:01:29;;;;;;;7.90;5.60;;;;;;;;;;105607;1287;22490;-32
2022/10/18 08:04:16;;;;;;;8.80;5.80;;;;;;;;;;105564;1297;22472;-31
2022/10/18 08:06:48;;;;;;;7.80;5.80;;;;;;;;;;105599;1288;22464;-30
2022/10/18 08:09:20;;;;;;;7.40;5.90;;;;;;;;;;105679;1297;22738;-28
2022/10/18 08:11:52;;;;;;;9.40;6.00;;;;;;;;;;105723;1298;22481;-29
2022/10/18 08:14:25;;;;;;;7.60;5.80;;;;;;;;;;105724;1293;26689;-30
2022/10/18 08:17:01;;;;;;;7.70;5.50;;;;;;;;;;105721;1292;22554;-29
2022/10/18 08:19:33;;;;;;;7.70;5.70;;;;;;;;;;105552;1284;22476;-29
2022/10/18 08:22:05;;;;;;;7.80;5.40;;;;;;;;;;105608;1283;25286;-29
2022/10/18 08:24:37;;;;;;;8.30;5.60;;;;;;;;;;105591;1297;22472;-27
2022/10/18 08:27:09;;;;;;;7.90;6.00;;;;;;;;;;105584;1297;26485;-30
2022/10/18 08:29:41;;;;;;;8.40;5.80;;;;;;;;;;105682;1291;23008;-30
2022/10/18 08:32:14;;;;;;;7.30;6.40;;;;;;;;;;105738;1295;22485;-30
2022/10/18 08:34:44;;;;;;;;;;;;;;;;;;105757;1295;22515;-30
2022/10/18 08:37:19;;;;;;;8.30;5.40;;;;;;;;;;105821;1279;22621;-26
2022/10/18 08:39:51;;;;;;;8.10;5.80;;;;;;;;;;105712;1290;22470;-27
2022/10/18 08:42:40;;;;;;;7.50;5.30;;;;;;;;;;105706;1286;22528;-28
2022/10/18 08:45:14;;;;;;;7.20;5.90;;;;;;;;;;105706;1295;25838;-29
2022/10/18 08:47:50;;;;;;;7.10;5.50;;;;;;;;;;105722;1296;25625;-27
2022/10/18 08:50:26;;;;;;;6.90;5.40;;;;;;;;;;105801;1295;25446;-27
2022/10/18 08:53:19;;;;;;;8.20;5.50;;;;;;;;;;105835;1291;22480;-27
2022/10/18 08:55:57;;;;;;;7.10;5.70;;;;;;;;;;105811;1290;22610;-28
2022/10/18 08:58:33;;;;;;;7.90;5.50;;;;;;;;;;105751;1280;22485;-28
2022/10/18 09:01:22;;;;;;;7.70;6.00;;;;;;;;;;105728;1298;22468;-28
2022/10/18 09:04:22;;;;;;;7.50;5.60;;;;;;;;;;105720;1298;22484;-28
2022/10/18 09:07:13;;;;;;;7.60;5.70;;;;;;;;;;105699;1294;22468;-29
2022/10/18 09:09:54;;;;;;;6.60;5.30;;;;;;;;;;105785;1294;22507;-28
2022/10/18 09:12:54;;;;;;;7.60;5.60;;;;;;;;;;105850;1286;22537;-30
2022/10/18 09:15:39;;;;;;;7.20;6.00;;;;;;;;;;105802;1296;22495;-28
2022/10/18 09:18:32;;;;;;;6.60;5.40;;;;;;;;;;105871;1294;22460;-28
2022/10/18 09:21:19;;;;;;;7.00;5.10;;;;;;;;;;105678;1294;22474;-32
2022/10/18 09:23:57;;;;;;;7.10;5.80;;;;;;;;;;105699;1295;22465;-29
2022/10/18 09:26:43;;;;;;;7.40;5.70;;;;;;;;;;105724;1295;22493;-27
2022/10/18 09:29:38;;;;;;;7.20;5.60;;;;;;;;;;105688;1280;22528;-26
2022/10/18 09:32:28;;;;;;;6.80;5.40;;;;;;;;;;105839;1292;22492;-27
2022/10/18 09:35:06;;;;;;;6.80;5.40;;;;;;;;;;105736;1280;26454;-28
2022/10/18 09:37:39;;;;;;;7.40;6.10;;;;;;;;;;105724;1285;22475;-29
2022/10/18 09:40:21;;;;;;;8.20;5.70;;;;;;;;;;105652;1292;22476;-29
2022/10/18 09:43:01;;;;;;;7.00;5.80;;;;;;;;;;105625;1289;22499;-28
2022/10/18 09:45:39;;;;;;;6.60;5.40;;;;;;;;;;105617;1289;22541;-29
2022/10/18 09:48:18;;;;;;;7.40;5.90;;;;;;;;;;105742;1288;24245;-29
2022/10/18 09:51:00;;;;;;;7.90;6.10;;;;;;;;;;105674;1295;22478;-29
2022/10/18 09:53:40;;;;;;;7.20;5.60;;;;;;;;;;105769;1289;25245;-28
2022/10/18 09:56:20;;;;;;;6.80;5.40;;;;;;;;;;105738;1289;25208;-29
2022/10/18 09:58:53;;;;;;;7.30;6.30;;;;;;;;;;105749;1295;22484;-29
2022/10/18 10:01:30;;;;;;;7.00;6.20;;;;;;;;;;105724;1295;22546;-29
2022/10/18 10:04:02;;;;;;;7.70;5.80;;;;;;;;;;105749;1294;22518;-30
2022/10/18 10:06:37;;;;;;;7.70;5.90;;;;;;;;;;105746;1289;22489;-29
2022/10/18 10:09:21;;;;;;;7.80;6.20;;;;;;;;;;105765;1297;25236;-30
2022/10/18 10:11:55;;;;;;;7.00;6.00;;;;;;;;;;105653;1298;22478;-30
2022/10/18 10:14:44;;;;;;;6.90;5.80;;;;;;;;;;105744;1295;22487;-29
2022/10/18 10:17:28;;;;;;;7.40;5.70;;;;;;;;;;105737;1288;22517;-29
2022/10/18 10:20:14;;;;;;;7.00;5.60;;;;;;;;;;105705;1292;25246;-29
2022/10/18 10:22:50;;;;;;;7.20;6.10;;;;;;;;;;105746;1295;22471;-29
2022/10/18 10:25:32;;;;;;;7.10;6.10;;;;;;;;;;105752;1296;22528;-28
2022/10/18 10:28:12;;;;;;;7.20;6.40;;;;;;;;;;105720;1291;22682;-30
2022/10/18 10:30:45;;;;;;;8.00;6.60;;;;;;;;;;105674;1273;22485;-27
2022/10/18 10:33:37;;;;;;;7.30;6.50;;;;;;;;;;105729;1301;22500;-28
2022/10/18 10:36:22;;;;;;;7.80;6.40;;;;;;;;;;105714;1298;22869;-28
2022/10/18 10:39:11;;;;;;;6.90;6.10;;;;;;;;;;105723;1283;25898;-28
2022/10/18 10:41:45;;;;;;;7.20;6.20;;;;;;;;;;105565;1279;25427;-30
2022/10/18 10:44:23;;;;;;;7.80;6.50;;;;;;;;;;105601;1287;22471;-29
2022/10/18 10:46:56;;;;;;;7.60;6.30;;;;;;;;;;105583;1289;22521;-27
2022/10/18 10:49:30;;;;;;;;;;;;;;;;;;105586;1288;22472;-28
2022/10/18 10:52:05;;;;;;;7.70;6.50;;;;;;;;;;105610;1282;22484;-28
2022/10/18 10:54:40;;;;;;;8.40;6.80;;;;;;;;;;105694;1295;22484;-28
2022/10/18 10:57:26;;;;;;;8.40;6.70;;;;;;;;;;105699;1295;22494;-28
2022/10/18 11:00:00;;;;;;;8.10;7.00;;;;;;;;;;105726;1291;22494;-29
2022/10/18 11:02:35;;;;;;;8.10;6.60;;;;;;;;;;105536;1294;22496;-28
2022/10/18 11:05:28;;;;;;;8.10;7.10;;;;;;;;;;105570;1298;22503;-28
2022/10/18 11:08:04;;;;;;;7.40;6.70;;;;;;;;;;105580;1291;26014;-28
2022/10/18 11:10:53;;;;;;;7.30;6.50;;;;;;;;;;105560;1297;22482;-27
2022/10/18 11:13:46;;;;;;;7.50;6.40;;;;;;;;;;105646;1282;22481;-27
2022/10/18 11:16:26;;;;;;;8.10;6.90;;;;;;;;;;105717;1295;24120;-28
2022/10/18 11:19:02;;;;;;;8.70;6.80;;;;;;;;;;105668;1295;22489;-29
2022/10/18 11:21:34;;;;;;;8.50;6.80;;;;;;;;;;105585;1280;22741;-28
2022/10/18 11:24:13;;;;;;;8.20;7.30;;;;;;;;;;105548;1298;22511;-28
2022/10/18 11:26:56;;;;;;;8.00;6.70;;;;;;;;;;105586;1289;22490;-27
2022/10/18 11:29:45;;;;;;;8.30;7.20;;;;;;;;;;105598;1295;22505;-29
2022/10/18 11:32:30;;;;;;;9.30;6.80;;;;;;;;;;105577;1289;22832;-26
2022/10/18 11:35:27;;;;;;;7.70;6.90;;;;;;;;;;105707;1277;22467;-29
2022/10/18 11:38:21;;;;;;;8.70;7.10;;;;;;;;;;105683;1290;22615;-28
2022/10/18 11:41:13;;;;;;;10.20;8.10;;;;;;;;;;105705;1295;22488;-29
2022/10/18 11:43:53;;;;;;;10.30;8.80;;;;;;;;;;105565;1288;22484;-28
2022/10/18 11:46:40;;;;;;;10.30;9.20;;;;;;;;;;105445;1288;26471;-28
2022/10/18 11:49:44;;;;;;;12.70;9.80;;;;;;;;;;105575;1298;22481;-28
2022/10/18 11:52:25;;;;;;;11.20;10.00;;;;;;;;;;105585;1296;22520;-28
2022/10/18 11:55:16;;;;;;;11.30;10.00;;;;;;;;;;105698;1288;22480;-28
2022/10/18 11:58:02;;;;;;;11.70;10.50;;;;;;;;;;105695;1273;25384;-28
2022/10/18 12:00:47;;;;;;;12.90;11.60;;;;;;;;;;105714;1295;22464;-28
2022/10/18 12:03:35;;;;;;;13.00;11.40;;;;;;;;;;105617;1289;22471;-28
2022/10/18 12:06:14;;;;;;;13.00;11.20;;;;;;;;;;105593;1297;22798;-28
2022/10/18 12:08:51;;;;;;;12.40;11.10;;;;;;;;;;105590;1274;25292;-29
2022/10/18 12:11:30;;;;;;;12.30;11.10;;;;;;;;;;105624;1297;22498;-28
2022/10/18 12:14:07;;;;;;;12.50;11.20;;;;;;;;;;105615;1280;22499;-27
2022/10/18 12:16:43;;;;;;;12.00;10.80;;;;;;;;;;105655;1283;22471;-28
2022/10/18 12:19:26;;;;;;;12.90;11.00;;;;;;;;;;105622;1282;22495;-28
2022/10/18 12:22:05;;;;;;;12.80;11.40;;;;;;;;;;105568;1281;24242;-27
2022/10/18 12:24:38;;;;;;;11.80;10.60;;;;;;;;;;105554;1286;22538;-28
2022/10/18 12:27:15;;;;;;;14.00;11.40;;;;;;;;;;105580;1290;22498;-29
2022/10/18 12:29:56;;;;;;;12.60;10.30;;;;;;;;;;105607;1283;22478;-29
2022/10/18 12:32:34;;;;;;;12.10;10.70;;;;;;;;;;105559;1296;22484;-26
2022/10/18 12:35:13;;;;;;;11.30;10.20;;;;;;;;;;105630;1282;22618;-29
2022/10/18 12:38:14;;;;;;;11.80;10.60;;;;;;;;;;105716;1295;22498;-27
2022/10/18 12:40:56;;;;;;;11.90;10.70;;;;;;;;;;105673;1295;22521;-28
2022/10/18 12:43:35;;;;;;;11.90;10.40;;;;;;;;;;105579;1297;22494;-26
2022/10/18 12:46:10;;;;;;;12.00;10.60;;;;;;;;;;105571;1294;22478;-27
2022/10/18 12:49:02;;;;;;;12.20;10.90;;;;;;;;;;105560;1290;25982;-28
2022/10/18 12:51:34;;;;;;;11.90;10.70;;;;;;;;;;105564;1297;22558;-28
2022/10/18 12:54:17;;;;;;;14.00;11.10;;;;;;;;;;105583;1290;22682;-27
2022/10/18 12:56:49;;;;;;;12.60;11.00;;;;;;;;;;105702;1295;22551;-28
2022/10/18 12:59:44;;;;;;;12.70;10.90;;;;;;;;;;105723;1295;22547;-27
2022/10/18 13:02:35;;;;;;;12.10;10.70;;;;;;;;;;105678;1289;22673;-29
2022/10/18 13:05:56;;;;;;;11.70;10.50;;;;;;;;;;105595;1289;22495;-28
2022/10/18 13:08:47;;;;;;;11.90;10.70;;;;;;;;;;105626;1289;25308;-27
2022/10/18 13:11:39;;;;;;;11.80;10.60;;;;;;;;;;105596;1289;25422;-27
2022/10/18 13:14:30;;;;;;;12.60;11.30;;;;;;;;;;105584;1289;22489;-27
2022/10/18 13:17:14;;;;;;;11.20;10.10;;;;;;;;;;105674;1295;22476;-26
2022/10/18 13:20:00;;;;;;;12.50;11.20;;;;;;;;;;105688;1292;22538;-27
2022/10/18 13:22:53;;;;;;;11.90;10.70;;;;;;;;;;105714;1282;22614;-27
2022/10/18 13:25:32;;;;;;;11.50;10.40;;;;;;;;;;105549;1280;22531;-27
2022/10/18 13:28:23;;;;;;;12.50;11.30;;;;;;;;;;105595;1290;22571;-27
2022/10/18 13:31:02;;;;;;;12.80;11.60;;;;;;;;;;105581;1275;22478;-27
2022/10/18 13:33:41;;;;;;;11.60;10.40;;;;;;;;;;105593;1298;22477;-28
2022/10/18 13:36:26;;;;;;;12.90;11.60;;;;;;;;;;105636;1268;22481;-28
2022/10/18 13:39:20;;;;;;;12.80;11.50;;;;;;;;;;105709;1301;22690;-28
2022/10/18 13:42:32;;;;;;;13.30;11.90;;;;;;;;;;105673;1295;22485;-27
2022/10/18 13:45:54;;;;;;;12.70;11.40;;;;;;;;;;105634;1296;22535;-28
2022/10/18 13:48:50;;;;;;;12.50;11.30;;;;;;;;;;105562;1289;22485;-28
2022/10/18 13:51:47;;;;;;;12.50;11.30;;;;;;;;;;105609;1295;22531;-29
2022/10/18 13:54:46;;;;;;;12.80;11.40;;;;;;;;;;105592;1288;22485;-27
2022/10/18 13:57:38;;;;;;;12.50;11.20;;;;;;;;;;105658;1290;22480;-28
2022/10/18 14:00:44;;;;;;;11.90;10.80;;;;;;;;;;105697;1286;22472;-28
2022/10/18 14:03:43;;;;;;;12.70;11.00;;;;;;;;;;105648;1295;22482;-27
2022/10/18 14:06:21;;;;;;;12.40;10.90;;;;;;;;;;105560;1295;22614;-27
2022/10/18 14:09:00;;;;;;;12.20;11.00;;;;;;;;;;105576;1296;22818;-27
2022/10/18 14:11:39;;;;;;;12.30;11.10;;;;;;;;;;105563;1291;22476;-28
2022/10/18 14:14:25;;;;;;;12.80;11.50;;;;;;;;;;105593;1281;22842;-28
2022/10/18 14:17:05;;;;;;;12.40;11.00;;;;;;;;;;105579;1295;22712;-28
2022/10/18 14:19:44;;;;;;;12.20;10.90;;;;;;;;;;105703;1280;22798;-27
2022/10/18 14:22:22;;;;;;;11.80;10.60;;;;;;;;;;105688;1280;22506;-28
2022/10/18 14:24:56;;;;;;;12.20;10.60;;;;;;;;;;105707;1288;25577;-28
2022/10/18 14:27:31;;;;;;;12.10;10.90;;;;;;;;;;105595;1295;22520;-28
2022/10/18 14:30:16;;;;;;;12.70;11.50;;;;;;;;;;105613;1289;22474;-28
2022/10/18 14:32:53;;;;;;;12.10;10.90;;;;;;;;;;105612;1290;22501;-28
2022/10/18 14:35:27;;;;;;;12.50;11.20;;;;;;;;;;105585;1297;22538;-28
2022/10/18 14:38:04;;;;;;;12.40;11.20;;;;;;;;;;105471;1288;199472;-28
2022/10/18 14:40:40;;;;;;;12.50;11.30;;;;;;;;;;105721;1297;22476;-28
2022/10/18 14:43:18;;;;;;;12.30;11.10;;;;;;;;;;105710;1295;22474;-28
2022/10/18 14:45:53;;;;;;;11.60;10.40;;;;;;;;;;105687;1295;22490;-27
2022/10/18 14:48:27;;;;;;;12.80;11.50;;;;;;;;;;105513;1280;22541;-28
2022/10/18 14:51:01;;;;;;;11.80;10.60;;;;;;;;;;105602;1282;23821;-28
2022/10/18 14:53:39;;;;;;;12.20;11.00;;;;;;;;;;105672;1282;22480;-28
2022/10/18 14:56:27;;;;;;;11.90;10.70;;;;;;;;;;105642;1283;22616;-29
2022/10/18 14:59:03;;;;;;;11.70;10.50;;;;;;;;;;105734;1295;22477;-29
2022/10/18 15:01:37;;;;;;;12.60;11.30;;;;;;;;;;105719;1273;25452;-29
2022/10/18 15:04:13;;;;;;;11.80;10.60;;;;;;;;;;105642;1295;22944;-28
2022/10/18 15:06:49;;;;;;;12.20;10.90;;;;;;;;;;105657;1298;22471;-28
2022/10/18 15:09:25;;;;;;;10.50;9.50;;;;;;;;;;105650;1289;22474;-28
2022/10/18 15:11:59;;;;;;;11.50;10.30;;;;;;;;;;105662;1282;22645;-28
2022/10/18 15:14:33;;;;;;;11.70;10.50;;;;;;;;;;105580;1295;22531;-28
2022/10/18 15:17:15;;;;;;;11.90;10.50;;;;;;;;;;105580;1298;22484;-28
2022/10/18 15:20:00;;;;;;;11.90;10.70;;;;;;;;;;105650;1295;22783;-25
2022/10/18 15:22:33;;;;;;;11.40;10.30;;;;;;;;;;105661;1288;22474;-29
2022/10/18 15:25:17;;;;;;;11.20;10.10;;;;;;;;;;105655;1288;22676;-27
2022/10/18 15:27:55;;;;;;;12.10;10.90;;;;;;;;;;105645;1295;22465;-27